Time;durP1;ratioP1;P1;durP2;ratioP2;P2;SDS_P1;SDS_P2;PMS_P1;PMS_P2;Temp;Humidity;BMP_temperature;BMP_pressure;BME280_temperature;BME280_humidity;BME280_pressure;Samples;Min_cycle;Max_cycle;Signal;HPM_P1;HPM_P2
2024/03/08 00:00:23;;;;;;;;;;;;;;;18.10;45.20;101151.00;5037098;28;1079;-47
2024/03/08 00:02:50;;;;;;;;;;;;;;;17.73;45.50;101152.06;5025429;28;1071;-53
2024/03/08 00:05:16;;;;;;;;;;;;;;;17.10;46.62;101150.19;5061696;28;2064;-51
2024/03/08 00:07:41;;;;;;;;;;;;;;;16.76;46.31;101142.31;5028533;28;1099;-50
2024/03/08 00:10:13;;;;;;;;;;;;;;;18.02;45.27;101144.16;5035711;28;1032;-52
2024/03/08 00:12:43;;;;;;;;;;;;;;;17.11;46.78;101132.63;5036613;28;1043;-52
2024/03/08 00:15:09;;;;;;;;;;;;;;;16.73;46.64;101132.69;5035442;28;1106;-48
2024/03/08 00:17:35;;;;;;;;;;;;;;;17.40;46.59;101123.91;5036833;28;1095;-49
2024/03/08 00:20:00;;;;;;;;;;;;;;;16.80;46.96;101121.44;5036785;28;1178;-49
2024/03/08 00:22:26;;;;;;;;;;;;;;;17.68;46.20;101119.84;5035951;28;933;-49
2024/03/08 00:24:51;;;;;;;;;;;;;;;17.39;46.37;101112.09;5031336;28;1902;-51
2024/03/08 00:27:17;;;;;;;;;;;;;;;16.75;47.23;101119.50;5016799;28;1090;-52
2024/03/08 00:29:42;;;;;;;;;;;;;;;18.23;44.81;101111.94;5035103;28;1000;-52
2024/03/08 00:32:08;;;;;;;;;;;;;;;17.49;46.08;101118.72;5035941;28;1062;-51
2024/03/08 00:34:39;;;;;;;;;;;;;;;16.91;46.54;101117.72;5021789;28;1997;-50
2024/03/08 00:37:05;;;;;;;;;;;;;;;16.77;46.64;101105.50;5028779;28;1048;-51
2024/03/08 00:39:30;;;;;;;;;;;;;;;17.60;46.12;101106.66;5035403;28;1141;-52
2024/03/08 00:41:56;;;;;;;;;;;;;;;16.87;46.89;101108.31;5036254;28;1122;-50
2024/03/08 00:44:21;;;;;;;;;;;;;;;17.17;47.08;101109.56;5022732;28;1910;-49
2024/03/08 00:46:47;;;;;;;;;;;;;;;17.48;46.25;101106.09;5028563;28;1063;-48
2024/03/08 00:49:12;;;;;;;;;;;;;;;16.95;46.58;101103.44;5023139;28;1034;-50
2024/03/08 00:51:38;;;;;;;;;;;;;;;16.66;46.54;101106.53;5035876;28;1044;-50
2024/03/08 00:54:04;;;;;;;;;;;;;;;16.94;46.73;101105.34;5036148;28;1445;-52
2024/03/08 00:56:29;;;;;;;;;;;;;;;17.39;46.48;101112.09;5024405;28;1129;-52
2024/03/08 00:58:55;;;;;;;;;;;;;;;16.75;46.94;101119.50;5035719;28;1032;-52
2024/03/08 01:01:20;;;;;;;;;;;;;;;16.69;47.32;101115.09;5036047;28;1055;-52
2024/03/08 01:03:46;;;;;;;;;;;;;;;17.21;47.09;101112.59;5022756;28;1903;-52
2024/03/08 01:06:11;;;;;;;;;;;;;;;16.73;47.24;101113.47;5032740;28;2231;-54
2024/03/08 01:08:38;;;;;;;;;;;;;;;16.38;46.95;101103.06;5036121;28;1115;-54
2024/03/08 01:11:04;;;;;;;;;;;;;;;17.69;46.19;101110.50;5035805;28;1160;-54
2024/03/08 01:13:30;;;;;;;;;;;;;;;16.80;47.53;101104.16;5035794;28;1055;-54
2024/03/08 01:15:56;;;;;;;;;;;;;;;16.74;47.71;101103.28;5035899;28;1027;-51
2024/03/08 01:18:21;;;;;;;;;;;;;;;17.16;47.21;101101.59;5036031;28;1198;-53
2024/03/08 01:20:47;;;;;;;;;;;;;;;16.63;47.39;101101.59;5035780;28;1162;-51
2024/03/08 01:23:13;;;;;;;;;;;;;;;16.42;47.13;101098.72;5032125;28;1183;-54
2024/03/08 01:25:38;;;;;;;;;;;;;;;17.72;46.04;101101.69;5035656;28;1985;-54
2024/03/08 01:28:04;;;;;;;;;;;;;;;16.81;47.39;101111.31;5036023;28;1103;-52
2024/03/08 01:30:32;;;;;;;;;;;;;;;16.97;47.66;101113.06;5025230;28;1036;-54
2024/03/08 01:32:58;;;;;;;;;;;;;;;17.38;46.77;101110.44;5033693;28;1151;-56
2024/03/08 01:35:23;;;;;;;;;;;;;;;16.70;47.41;101111.22;5035947;28;1087;-51
2024/03/08 01:37:49;;;;;;;;;;;;;;;17.07;47.09;101115.84;5031100;28;1116;-54
2024/03/08 01:40:16;;;;;;;;;;;;;;;16.83;47.54;101120.09;5027438;28;1024;-51
2024/03/08 01:42:42;;;;;;;;;;;;;;;16.52;47.43;101119.91;5035981;28;1151;-56
2024/03/08 01:45:07;;;;;;;;;;;;;;;17.52;46.26;101109.94;5035261;28;1918;-54
2024/03/08 01:47:33;;;;;;;;;;;;;;;16.64;47.49;101114.22;5030691;28;1138;-53
2024/03/08 01:50:01;;;;;;;;;;;;;;;16.81;47.80;101122.28;5026314;28;1147;-56
2024/03/08 01:52:27;;;;;;;;;;;;;;;17.52;46.27;101115.44;5024270;28;1001;-53
2024/03/08 01:54:52;;;;;;;;;;;;;;;16.80;47.04;101112.38;5038330;28;1107;-54
2024/03/08 01:57:18;;;;;;;;;;;;;;;16.52;46.90;101109.78;5037989;28;1135;-54
2024/03/08 01:59:43;;;;;;;;;;;;;;;18.03;45.18;101123.75;5039911;28;1102;-52
2024/03/08 02:02:09;;;;;;;;;;;;;;;16.87;47.17;101121.22;5039218;28;1152;-54
2024/03/08 02:04:36;;;;;;;;;;;;;;;17.85;45.77;101118.78;5071018;28;1914;-54
2024/03/08 02:07:01;;;;;;;;;;;;;;;17.79;45.72;101112.44;5039258;28;1091;-56
2024/03/08 02:09:27;;;;;;;;;;;;;;;16.99;46.87;101107.28;5039217;28;1559;-55
2024/03/08 02:11:54;;;;;;;;;;;;;;;16.69;46.78;101109.59;5039049;28;1052;-56
2024/03/08 02:14:20;;;;;;;;;;;;;;;17.57;46.00;101102.53;5039020;28;1119;-55
2024/03/08 02:16:45;;;;;;;;;;;;;;;16.78;47.06;101115.41;5038461;28;1550;-49
2024/03/08 02:19:11;;;;;;;;;;;;;;;17.01;47.39;101116.94;5039028;28;1175;-52
2024/03/08 02:21:37;;;;;;;;;;;;;;;17.39;46.65;101112.09;5038778;28;1063;-53
2024/03/08 02:24:04;;;;;;;;;;;;;;;16.81;46.95;101114.03;5027202;28;1910;-52
2024/03/08 02:26:29;;;;;;;;;;;;;;;16.49;46.88;101114.97;5036820;28;1072;-51
2024/03/08 02:28:54;;;;;;;;;;;;;;;17.41;46.30;101118.16;5039144;28;1126;-53
2024/03/08 02:31:20;;;;;;;;;;;;;;;16.58;47.39;101108.69;5038720;28;1072;-50
2024/03/08 02:33:47;;;;;;;;;;;;;;;16.49;46.61;101120.44;5038372;28;1227;-49
2024/03/08 02:36:13;;;;;;;;;;;;;;;17.52;46.32;101115.44;5020298;28;1079;-49
2024/03/08 02:38:40;;;;;;;;;;;;;;;16.69;47.27;101115.09;5030529;28;1055;-51
2024/03/08 02:41:06;;;;;;;;;;;;;;;16.39;46.88;101115.72;5038530;28;1067;-50
2024/03/08 02:43:31;;;;;;;;;;;;;;;17.77;45.82;101117.41;5038357;28;1989;-50
2024/03/08 02:45:57;;;;;;;;;;;;;;;17.08;47.16;101123.00;5032712;28;1111;-53
2024/03/08 02:48:22;;;;;;;;;;;;;;;16.60;47.16;101116.66;5030093;28;1126;-55
2024/03/08 02:50:50;;;;;;;;;;;;;;;17.34;46.84;101125.81;5038637;28;1087;-53
2024/03/08 02:53:16;;;;;;;;;;;;;;;16.91;47.31;101122.34;5038614;28;1119;-54
2024/03/08 02:55:41;;;;;;;;;;;;;;;16.54;46.95;101123.22;5038372;28;1199;-51
2024/03/08 02:58:10;;;;;;;;;;;;;;;17.39;46.73;101119.50;5032005;28;1453;-50
2024/03/08 03:00:36;;;;;;;;;;;;;;;16.59;47.57;101132.31;5024921;28;1147;-56
2024/03/08 03:03:02;;;;;;;;;;;;;;;18.26;44.85;101136.16;5038052;28;1207;-55
2024/03/08 03:05:28;;;;;;;;;;;;;;;17.50;46.33;101136.88;5038724;28;2024;-54
2024/03/08 03:07:53;;;;;;;;;;;;;;;16.91;46.92;101136.09;5037748;28;1035;-53
2024/03/08 03:10:19;;;;;;;;;;;;;;;16.53;46.96;101135.28;5037978;28;1066;-49
2024/03/08 03:12:45;;;;;;;;;;;;;;;17.96;45.69;101131.47;5025740;28;1147;-55
2024/03/08 03:15:11;;;;;;;;;;;;;;;17.16;46.77;101129.06;5037760;28;1004;-53
2024/03/08 03:17:37;;;;;;;;;;;;;;;16.72;47.18;101121.97;5037968;28;1131;-54
2024/03/08 03:20:09;;;;;;;;;;;;;;;16.60;46.29;101133.97;5024779;28;1106;-56
2024/03/08 03:22:34;;;;;;;;;;;;;;;17.85;45.70;101138.03;5037390;28;1090;-54
2024/03/08 03:25:02;;;;;;;;;;;;;;;16.84;47.29;101143.72;5024888;28;1902;-56
2024/03/08 03:27:28;;;;;;;;;;;;;;;16.59;46.74;101135.06;5037703;28;1206;-57
2024/03/08 03:29:53;;;;;;;;;;;;;;;17.37;46.63;101146.47;5024870;28;1147;-56
2024/03/08 03:32:19;;;;;;;;;;;;;;;16.95;47.49;101137.22;5037660;28;1544;-56
2024/03/08 03:34:44;;;;;;;;;;;;;;;16.63;47.02;101129.03;5037407;28;851;-53
2024/03/08 03:37:12;;;;;;;;;;;;;;;16.43;46.33;101133.31;5037487;28;1075;-54
2024/03/08 03:39:48;;;;;;;;;;;;;;;17.73;46.04;101141.88;5037485;28;1114;-51
2024/03/08 03:42:17;;;;;;;;;;;;;;;16.67;47.40;101133.72;5037367;28;1115;-53
2024/03/08 03:44:47;;;;;;;;;;;;;;;17.26;47.10;101137.34;5028867;28;1967;-55
2024/03/08 03:47:12;;;;;;;;;;;;;;;17.51;46.30;101138.53;5032876;28;1159;-54
2024/03/08 03:49:38;;;;;;;;;;;;;;;16.82;47.25;101140.44;5036984;28;1040;-53
2024/03/08 03:52:04;;;;;;;;;;;;;;;16.62;46.56;101135.63;5036999;28;1118;-54
2024/03/08 03:54:30;;;;;;;;;;;;;;;16.97;47.10;101135.03;5028594;28;1059;-53
2024/03/08 03:56:56;;;;;;;;;;;;;;;16.88;47.33;101131.09;5017418;28;1119;-53
2024/03/08 03:59:21;;;;;;;;;;;;;;;16.41;47.25;101130.84;5029285;28;844;-53
2024/03/08 04:01:47;;;;;;;;;;;;;;;17.84;45.66;101134.47;5034929;28;1215;-53
2024/03/08 04:04:13;;;;;;;;;;;;;;;16.88;47.20;101133.84;5026180;28;1906;-51
2024/03/08 04:06:38;;;;;;;;;;;;;;;16.54;47.07;101135.03;5034656;28;1119;-54
2024/03/08 04:09:04;;;;;;;;;;;;;;;17.59;46.57;101141.56;5025805;28;1230;-53
2024/03/08 04:11:30;;;;;;;;;;;;;;;16.69;47.63;101137.06;5034387;28;1039;-55
2024/03/08 04:13:55;;;;;;;;;;;;;;;17.89;45.77;101141.88;5017363;28;1112;-53
2024/03/08 04:16:21;;;;;;;;;;;;;;;17.84;45.57;101142.72;5030120;28;1131;-53
2024/03/08 04:18:47;;;;;;;;;;;;;;;16.88;47.33;101140.19;5025575;28;1056;-49
2024/03/08 04:21:13;;;;;;;;;;;;;;;17.10;47.15;101142.78;5035596;28;1067;-58
2024/03/08 04:23:38;;;;;;;;;;;;;;;17.56;45.99;101133.06;5036670;28;1947;-57
2024/03/08 04:26:07;;;;;;;;;;;;;;;16.92;46.73;101130.31;5036719;28;1055;-58
2024/03/08 04:28:32;;;;;;;;;;;;;;;16.54;46.68;101132.28;5036479;28;1020;-59
2024/03/08 04:31:00;;;;;;;;;;;;;;;16.80;46.33;101143.41;5034070;28;1158;-58
2024/03/08 04:33:26;;;;;;;;;;;;;;;16.90;47.04;101131.69;5031407;28;1168;-55
2024/03/08 04:35:51;;;;;;;;;;;;;;;17.06;47.14;101138.91;5028537;28;948;-56
2024/03/08 04:38:17;;;;;;;;;;;;;;;18.50;44.10;101134.78;5031322;28;1033;-56
2024/03/08 04:40:43;;;;;;;;;;;;;;;17.14;46.96;101134.84;5036097;28;1095;-56
2024/03/08 04:43:08;;;;;;;;;;;;;;;16.79;46.84;101135.44;5036037;28;1144;-57
2024/03/08 04:45:34;;;;;;;;;;;;;;;17.41;46.54;101140.13;5037022;28;1922;-56
2024/03/08 04:47:59;;;;;;;;;;;;;;;16.76;47.30;101137.63;5035846;28;948;-54
2024/03/08 04:50:25;;;;;;;;;;;;;;;17.89;45.81;101141.88;5035900;28;1087;-57
2024/03/08 04:52:51;;;;;;;;;;;;;;;17.15;46.94;101136.47;5022625;28;1032;-57
2024/03/08 04:55:16;;;;;;;;;;;;;;;16.80;46.91;101142.59;5027984;28;1136;-55
2024/03/08 04:57:43;;;;;;;;;;;;;;;16.55;46.43;101146.81;5030134;28;1056;-62
2024/03/08 05:00:11;;;;;;;;;;;;;;;17.71;45.69;101151.50;5035654;28;957;-56
2024/03/08 05:02:39;;;;;;;;;;;;;;;16.78;47.24;101142.88;5036045;28;1075;-57
2024/03/08 05:05:06;;;;;;;;;;;;;;;16.52;46.99;101141.88;5029323;28;1910;-61
2024/03/08 05:07:32;;;;;;;;;;;;;;;17.48;46.66;101152.81;5027117;28;1019;-60
2024/03/08 05:09:58;;;;;;;;;;;;;;;16.90;47.15;101145.41;5018805;28;1167;-58
2024/03/08 05:12:24;;;;;;;;;;;;;;;17.71;45.76;101152.34;5027518;28;940;-58
2024/03/08 05:14:49;;;;;;;;;;;;;;;17.24;46.77;101153.28;5031737;28;1285;-58
2024/03/08 05:17:16;;;;;;;;;;;;;;;16.96;47.27;101160.84;5030153;28;1235;-60
2024/03/08 05:19:41;;;;;;;;;;;;;;;16.70;47.81;101157.91;5029255;28;1031;-59
2024/03/08 05:22:07;;;;;;;;;;;;;;;16.46;48.10;101157.47;5035237;28;1098;-63
2024/03/08 05:24:33;;;;;;;;;;;;;;;16.17;48.72;101162.47;5035399;28;1974;-62
2024/03/08 05:27:00;;;;;;;;;;;;;;;16.06;49.27;101162.38;5038689;28;1223;-60
2024/03/08 05:29:26;;;;;;;;;;;;;;;15.89;49.51;101169.88;5039355;28;1184;-59
2024/03/08 05:31:55;;;;;;;;;;;;;;;15.80;49.75;101174.19;5026814;28;939;-58
2024/03/08 05:34:21;;;;;;;;;;;;;;;15.65;49.78;101169.34;5037113;28;1147;-60
2024/03/08 05:36:49;;;;;;;;;;;;;;;15.52;50.32;101182.34;5033927;28;1321;-57
2024/03/08 05:39:15;;;;;;;;;;;;;;;15.49;50.07;101184.81;5033086;28;1107;-52
2024/03/08 05:41:40;;;;;;;;;;;;;;;16.33;48.42;101177.16;5020275;28;1118;-56
2024/03/08 05:44:06;;;;;;;;;;;;;;;17.27;45.85;101180.22;5032753;28;1905;-54
2024/03/08 05:46:31;;;;;;;;;;;;;;;16.36;48.01;101177.44;5040187;28;1159;-54
2024/03/08 05:48:58;;;;;;;;;;;;;;;16.00;48.80;101184.53;5039741;28;892;-55
2024/03/08 05:51:26;;;;;;;;;;;;;;;15.75;49.43;101185.88;5034760;28;1291;-56
2024/03/08 05:53:53;;;;;;;;;;;;;;;15.83;49.34;101184.66;5039253;28;1109;-55
2024/03/08 05:56:19;;;;;;;;;;;;;;;17.32;45.63;101188.50;5026166;28;1120;-57
2024/03/08 05:58:45;;;;;;;;;;;;;;;17.19;45.63;101188.97;5039991;28;1071;-55
2024/03/08 06:01:12;;;;;;;;;;;;;;;16.43;47.62;101194.50;5038483;28;1326;-49
2024/03/08 06:03:44;;;;;;;;;;;;;;;16.08;48.49;101198.59;5039101;28;1910;-54
2024/03/08 06:06:13;;;;;;;;;;;;;;;15.87;49.16;101203.06;5039285;28;1063;-54
2024/03/08 06:08:39;;;;;;;;;;;;;;;15.68;49.44;101205.31;5039627;28;1114;-56
2024/03/08 06:11:05;;;;;;;;;;;;;;;15.55;49.97;101206.50;5038660;28;1099;-60
2024/03/08 06:13:31;;;;;;;;;;;;;;;17.03;46.54;101213.63;5033676;28;1319;-60
2024/03/08 06:15:57;;;;;;;;;;;;;;;17.20;45.84;101209.88;5039201;28;1088;-59
2024/03/08 06:18:23;;;;;;;;;;;;;;;16.36;47.77;101213.13;5038908;28;1151;-59
2024/03/08 06:20:48;;;;;;;;;;;;;;;16.12;48.27;101209.91;5034414;28;1265;-56
2024/03/08 06:23:17;;;;;;;;;;;;;;;15.80;49.00;101212.59;5030626;28;1378;-58
2024/03/08 06:25:45;;;;;;;;;;;;;;;15.65;49.63;101225.00;5038328;28;1913;-53
2024/03/08 06:28:11;;;;;;;;;;;;;;;16.36;47.92;101226.84;5037937;28;1059;-54
2024/03/08 06:30:36;;;;;;;;;;;;;;;17.63;44.98;101221.59;5039081;28;1127;-58
2024/03/08 06:33:02;;;;;;;;;;;;;;;16.65;46.85;101217.44;5038770;28;1035;-56
2024/03/08 06:35:28;;;;;;;;;;;;;;;16.15;48.46;101222.28;5038489;28;1404;-59
2024/03/08 06:37:53;;;;;;;;;;;;;;;15.98;48.69;101219.63;5036059;28;1091;-55
2024/03/08 06:40:19;;;;;;;;;;;;;;;15.71;49.46;101214.91;5038254;28;1241;-56
2024/03/08 06:42:45;;;;;;;;;;;;;;;15.61;49.86;101218.34;5035257;28;1397;-57
2024/03/08 06:45:12;;;;;;;;;;;;;;;17.18;45.95;101217.53;5034177;28;1973;-53
2024/03/08 06:47:37;;;;;;;;;;;;;;;17.08;45.85;101216.41;5037975;28;1214;-53
2024/03/08 06:50:03;;;;;;;;;;;;;;;16.39;47.81;101217.25;5036338;28;1226;-55
2024/03/08 06:52:29;;;;;;;;;;;;;;;16.03;48.54;101223.25;5033402;28;1282;-53
2024/03/08 06:54:54;;;;;;;;;;;;;;;15.81;48.95;101226.03;5034737;28;1301;-55
2024/03/08 06:57:21;;;;;;;;;;;;;;;15.80;49.19;101224.38;5036865;28;1250;-55
2024/03/08 06:59:48;;;;;;;;;;;;;;;17.30;45.64;101226.41;5036474;28;1273;-55
2024/03/08 07:02:13;;;;;;;;;;;;;;;17.40;45.23;101223.72;5033181;28;1249;-53
2024/03/08 07:04:38;;;;;;;;;;;;;;;16.49;47.33;101228.31;5030544;28;1910;-54
2024/03/08 07:07:04;;;;;;;;;;;;;;;16.16;48.33;101218.41;5033863;28;1128;-55
2024/03/08 07:09:30;;;;;;;;;;;;;;;15.95;48.87;101226.47;5035372;28;1278;-52
2024/03/08 07:11:55;;;;;;;;;;;;;;;15.79;49.00;101238.31;5037489;28;1078;-54
2024/03/08 07:14:21;;;;;;;;;;;;;;;16.46;47.67;101225.28;5037613;28;1265;-50
2024/03/08 07:16:47;;;;;;;;;;;;;;;17.64;44.56;101228.75;5036264;28;1036;-52
2024/03/08 07:19:13;;;;;;;;;;;;;;;16.69;46.78;101224.94;5036010;28;1302;-55
2024/03/08 07:21:38;;;;;;;;;;;;;;;16.24;48.19;101228.91;5033399;28;1226;-51
2024/03/08 07:24:21;;;;;;;;;;;;;;;15.90;48.75;101223.66;5034588;28;1906;-54
2024/03/08 07:26:49;;;;;;;;;;;;;;;15.74;49.42;101233.59;5036502;28;1303;-54
2024/03/08 07:29:15;;;;;;;;;;;;;;;17.04;46.25;101231.78;5034991;28;1304;-56
2024/03/08 07:34:24;;;;;;;;;;;;;;;16.46;47.46;101228.03;5034512;28;1262;-52
2024/03/08 07:36:50;;;;;;;;;;;;;;;16.13;48.18;101228.03;5036965;28;1147;-58
2024/03/08 07:39:16;;;;;;;;;;;;;;;15.91;48.74;101231.63;5035420;28;1210;-56
2024/03/08 07:41:41;;;;;;;;;;;;;;;15.81;49.25;101236.16;5037159;28;1254;-57
2024/03/08 07:44:07;;;;;;;;;;;;;;;17.29;45.46;101238.50;5036001;28;1905;-53
2024/03/08 07:46:36;;;;;;;;;;;;;;;17.23;45.47;101228.56;5035175;28;1265;-59
2024/03/08 07:49:02;;;;;;;;;;;;;;;16.50;47.17;101231.91;5032878;28;1282;-58
2024/03/08 07:51:28;;;;;;;;;;;;;;;16.08;48.29;101228.78;5034148;28;1210;-58
2024/03/08 07:53:54;;;;;;;;;;;;;;;15.88;49.02;101236.81;5032969;28;1129;-59
2024/03/08 07:56:21;;;;;;;;;;;;;;;15.70;49.39;101230.53;5024451;28;1127;-58
2024/03/08 07:58:47;;;;;;;;;;;;;;;17.02;46.30;101228.44;5035187;28;1271;-56
2024/03/08 08:01:16;;;;;;;;;;;;;;;17.34;45.33;101218.47;5035001;28;1183;-57
2024/03/08 08:03:42;;;;;;;;;;;;;;;16.41;47.59;101229.63;5037035;28;1902;-58
2024/03/08 08:06:07;;;;;;;;;;;;;;;16.10;48.43;101230.44;5035078;28;1145;-59
2024/03/08 08:08:33;;;;;;;;;;;;;;;15.90;48.90;101227.22;5034398;28;1195;-57
2024/03/08 08:10:59;;;;;;;;;;;;;;;16.94;46.50;101226.19;5036622;28;1106;-61
2024/03/08 08:13:24;;;;;;;;;;;;;;;17.89;44.08;101227.19;5033766;28;1325;-60
2024/03/08 08:15:50;;;;;;;;;;;;;;;16.88;46.42;101228.09;5024676;28;1408;-62
2024/03/08 08:18:15;;;;;;;;;;;;;;;16.31;47.73;101223.22;5035369;28;1356;-60
2024/03/08 08:20:41;;;;;;;;;;;;;;;16.08;48.49;101227.97;5024328;28;1576;-59
2024/03/08 08:23:06;;;;;;;;;;;;;;;15.87;48.94;101226.91;5029982;28;1520;-62
2024/03/08 08:25:34;;;;;;;;;;;;;;;15.76;49.33;101233.34;5036505;28;1901;-61
2024/03/08 08:27:59;;;;;;;;;;;;;;;17.22;45.84;101226.91;5030105;28;1520;-63
2024/03/08 08:30:25;;;;;;;;;;;;;;;17.39;45.20;101230.31;5023043;28;1711;-59
2024/03/08 08:32:50;;;;;;;;;;;;;;;16.56;46.94;101217.97;5032443;28;1127;-61
2024/03/08 08:35:16;;;;;;;;;;;;;;;16.17;48.15;101223.66;5036760;28;1048;-61
2024/03/08 08:37:42;;;;;;;;;;;;;;;15.94;48.68;101222.06;5035116;28;1376;-62
2024/03/08 08:40:14;;;;;;;;;;;;;;;15.73;48.94;101216.31;5036474;28;1348;-59
2024/03/08 08:42:39;;;;;;;;;;;;;;;16.31;47.88;101223.22;5035063;28;1186;-59
2024/03/08 08:45:08;;;;;;;;;;;;;;;17.57;44.83;101222.66;5034703;28;1992;-56
2024/03/08 08:47:34;;;;;;;;;;;;;;;17.06;45.72;101223.25;5035485;28;1203;-57
2024/03/08 08:50:00;;;;;;;;;;;;;;;16.39;47.67;101222.75;5034419;28;1274;-53
2024/03/08 08:52:26;;;;;;;;;;;;;;;16.12;48.27;101220.88;5032930;28;1234;-58
2024/03/08 08:54:51;;;;;;;;;;;;;;;15.91;48.55;101219.84;5033037;28;1247;-58
2024/03/08 08:57:17;;;;;;;;;;;;;;;15.76;49.09;101225.94;5033512;28;1306;-58
2024/03/08 08:59:45;;;;;;;;;;;;;;;17.24;45.59;101227.50;5034092;28;1344;-57
2024/03/08 09:02:10;;;;;;;;;;;;;;;17.30;45.32;101222.84;5032745;28;1277;-60
2024/03/08 09:04:36;;;;;;;;;;;;;;;16.54;47.30;101231.13;5031536;28;1906;-57
2024/03/08 09:07:01;;;;;;;;;;;;;;;16.23;47.74;101228.09;5036442;28;1138;-61
2024/03/08 09:09:27;;;;;;;;;;;;;;;15.89;48.86;101227.47;5035636;28;1317;-60
2024/03/08 09:11:54;;;;;;;;;;;;;;;15.74;49.31;101228.13;5035277;28;1068;-60
2024/03/08 09:14:20;;;;;;;;;;;;;;;16.92;46.43;101228.41;5034756;28;1246;-62
2024/03/08 09:16:47;;;;;;;;;;;;;;;17.76;44.37;101232.09;5034557;28;1059;-61
2024/03/08 09:19:12;;;;;;;;;;;;;;;16.71;46.57;101233.72;5035181;28;1317;-61
2024/03/08 09:21:40;;;;;;;;;;;;;;;16.31;47.90;101235.03;5036457;28;1091;-55
2024/03/08 09:24:06;;;;;;;;;;;;;;;15.98;48.63;101236.91;5033689;28;1910;-56
2024/03/08 09:26:33;;;;;;;;;;;;;;;15.81;49.10;101234.25;5033529;28;1085;-57
2024/03/08 09:28:59;;;;;;;;;;;;;;;16.87;46.44;101239.31;5032714;28;1233;-56
2024/03/08 09:31:25;;;;;;;;;;;;;;;17.61;44.41;101238.38;5035323;28;1178;-61
2024/03/08 09:33:51;;;;;;;;;;;;;;;16.63;47.02;101236.94;5034383;28;1332;-58
2024/03/08 09:36:17;;;;;;;;;;;;;;;16.15;48.18;101242.28;5033206;28;1226;-61
2024/03/08 09:38:42;;;;;;;;;;;;;;;15.95;48.75;101242.91;5030773;28;1277;-63
2024/03/08 09:41:10;;;;;;;;;;;;;;;16.51;47.53;101244.53;5033129;28;1093;-59
2024/03/08 09:43:35;;;;;;;;;;;;;;;17.70;44.30;101244.19;5066937;28;1282;-60
2024/03/08 09:46:01;;;;;;;;;;;;;;;16.69;46.54;101244.16;5034512;28;1914;-55
2024/03/08 09:48:27;;;;;;;;;;;;;;;16.22;47.94;101231.13;5020751;28;1082;-57
2024/03/08 09:50:54;;;;;;;;;;;;;;;15.97;48.58;101243.47;5033984;28;1028;-58
2024/03/08 09:53:22;;;;;;;;;;;;;;;16.03;48.53;101247.09;5033329;28;1164;-57
2024/03/08 09:55:49;;;;;;;;;;;;;;;17.54;44.83;101239.72;5034719;28;1285;-58
2024/03/08 10:01:01;;;;;;;;;;;;;;;16.21;47.62;101224.78;5032443;28;1301;-58
2024/03/08 10:03:27;;;;;;;;;;;;;;;15.99;48.39;101235.84;5035803;28;1274;-58
2024/03/08 10:05:56;;;;;;;;;;;;;;;15.79;49.05;101243.78;5033054;28;2036;-59
2024/03/08 10:08:21;;;;;;;;;;;;;;;16.99;46.15;101239.97;5026649;28;1627;-60
2024/03/08 10:10:47;;;;;;;;;;;;;;;17.73;44.32;101248.31;5034094;28;1166;-61
2024/03/08 10:13:13;;;;;;;;;;;;;;;16.72;46.58;101235.38;5036823;28;1198;-61
2024/03/08 10:15:42;;;;;;;;;;;;;;;16.23;47.89;101243.75;5037433;28;1261;-59
2024/03/08 10:18:08;;;;;;;;;;;;;;;15.97;48.59;101235.25;5037386;28;1246;-62
2024/03/08 10:20:34;;;;;;;;;;;;;;;15.75;49.00;101243.47;5036153;28;1324;-60
2024/03/08 10:23:05;;;;;;;;;;;;;;;16.93;46.35;101241.88;5071222;28;1269;-58
2024/03/08 10:25:31;;;;;;;;;;;;;;;17.38;45.03;101231.41;5036540;28;1906;-55
2024/03/08 10:27:57;;;;;;;;;;;;;;;16.45;47.37;101229.13;5037189;28;1285;-61
2024/03/08 10:30:23;;;;;;;;;;;;;;;16.18;47.95;101238.22;5036762;28;1373;-58
2024/03/08 10:32:48;;;;;;;;;;;;;;;15.90;48.43;101240.09;5035227;28;1548;-58
2024/03/08 10:35:14;;;;;;;;;;;;;;;16.56;47.04;101237.19;5038909;28;1230;-58
2024/03/08 10:37:46;;;;;;;;;;;;;;;17.78;44.28;101235.41;5036349;28;1246;-60
2024/03/08 10:40:19;;;;;;;;;;;;;;;16.84;46.07;101242.59;5036845;28;1230;-60
2024/03/08 10:42:54;;;;;;;;;;;;;;;16.28;47.67;101235.53;5059173;28;1218;-59
2024/03/08 10:45:30;;;;;;;;;;;;;;;15.99;48.49;101243.22;5038761;28;1898;-59
2024/03/08 10:48:01;;;;;;;;;;;;;;;15.77;49.07;101240.47;5057020;28;1520;-59
2024/03/08 10:50:27;;;;;;;;;;;;;;;16.74;46.66;101235.09;5034610;28;1038;-56
2024/03/08 10:52:52;;;;;;;;;;;;;;;17.81;44.27;101233.19;5038634;28;1047;-60
2024/03/08 10:55:20;;;;;;;;;;;;;;;16.85;46.37;101236.84;5038788;28;1230;-58
2024/03/08 10:57:46;;;;;;;;;;;;;;;16.24;47.65;101234.41;5038609;28;1273;-62
2024/03/08 11:00:12;;;;;;;;;;;;;;;16.12;48.11;101241.97;5038418;28;1094;-56
2024/03/08 11:02:37;;;;;;;;;;;;;;;15.86;48.78;101244.44;5038413;28;821;-58
2024/03/08 11:05:03;;;;;;;;;;;;;;;15.98;48.63;101236.91;5038218;28;1979;-56
2024/03/08 11:07:34;;;;;;;;;;;;;;;17.48;45.02;101235.31;5038871;28;1128;-52
2024/03/08 11:10:00;;;;;;;;;;;;;;;16.91;46.11;101245.97;5039113;28;1079;-49
2024/03/08 11:12:25;;;;;;;;;;;;;;;16.26;47.76;101235.00;5036883;28;1172;-47
2024/03/08 11:14:51;;;;;;;;;;;;;;;15.92;48.45;101237.94;5038254;28;1191;-50
2024/03/08 11:17:27;;;;;;;;;;;;;;;15.82;49.04;101240.56;5038276;28;1080;-51
2024/03/08 11:19:53;;;;;;;;;;;;;;;17.45;45.16;101237.47;5038538;28;1142;-50
2024/03/08 11:22:26;;;;;;;;;;;;;;;16.90;46.15;101236.91;5036583;28;1185;-48
2024/03/08 11:24:52;;;;;;;;;;;;;;;16.28;47.59;101232.81;5029298;28;1914;-51
2024/03/08 11:27:17;;;;;;;;;;;;;;;15.94;48.54;101246.75;5029659;28;1722;-54
2024/03/08 11:29:43;;;;;;;;;;;;;;;15.70;49.25;101241.50;5026927;28;1215;-48
2024/03/08 11:32:10;;;;;;;;;;;;;;;16.51;47.30;101245.38;5028977;28;1551;-48
2024/03/08 11:34:35;;;;;;;;;;;;;;;17.75;44.25;101241.47;5034015;28;1450;-52
2024/03/08 11:37:03;;;;;;;;;;;;;;;16.90;46.08;101236.06;5028449;28;1286;-55
2024/03/08 11:39:29;;;;;;;;;;;;;;;16.32;47.69;101238.63;5032626;28;1192;-57
2024/03/08 11:41:56;;;;;;;;;;;;;;;16.02;48.35;101239.94;5028986;28;1079;-46
2024/03/08 11:44:21;;;;;;;;;;;;;;;15.79;48.67;101241.91;5035185;28;1901;-46
2024/03/08 11:46:47;;;;;;;;;;;;;;;16.28;47.83;101238.28;5035880;28;1325;-50
2024/03/08 11:49:13;;;;;;;;;;;;;;;17.60;44.57;101233.16;5036096;28;1070;-48
2024/03/08 11:51:39;;;;;;;;;;;;;;;16.70;46.70;101237.53;5045294;28;901;-47
2024/03/08 11:54:06;;;;;;;;;;;;;;;16.21;47.55;101241.25;5031141;28;1429;-45
2024/03/08 11:56:32;;;;;;;;;;;;;;;15.88;48.52;101242.31;5030206;28;1081;-50
2024/03/08 11:58:57;;;;;;;;;;;;;;;15.71;48.85;101234.09;5028899;28;1301;-45
2024/03/08 12:01:23;;;;;;;;;;;;;;;17.14;45.53;101235.66;5036381;28;1024;-50
2024/03/08 12:03:59;;;;;;;;;;;;;;;17.65;44.39;101235.91;5035139;28;1991;-49
2024/03/08 12:06:36;;;;;;;;;;;;;;;16.63;46.81;101236.13;5031101;28;1191;-50
2024/03/08 12:09:02;;;;;;;;;;;;;;;16.19;47.65;101237.94;5031918;28;1095;-49
2024/03/08 12:11:28;;;;;;;;;;;;;;;15.90;48.57;101240.09;5027495;28;1008;-51
2024/03/08 12:13:53;;;;;;;;;;;;;;;16.38;47.41;101235.66;5068148;28;1522;-50
2024/03/08 12:16:21;;;;;;;;;;;;;;;17.70;44.53;101237.88;5035468;28;1130;-47
2024/03/08 12:18:48;;;;;;;;;;;;;;;16.87;46.16;101236.56;5028673;28;1150;-49
2024/03/08 12:21:17;;;;;;;;;;;;;;;16.35;47.31;101240.81;5036897;28;1051;-50
2024/03/08 12:23:42;;;;;;;;;;;;;;;15.99;48.13;101240.47;5034384;28;1265;-52
2024/03/08 12:26:15;;;;;;;;;;;;;;;15.76;48.64;101230.59;5033850;28;1915;-47
2024/03/08 12:28:44;;;;;;;;;;;;;;;15.90;48.55;101237.38;5036463;28;1373;-47
2024/03/08 12:31:13;;;;;;;;;;;;;;;17.43;45.10;101234.19;5034720;28;1012;-48
2024/03/08 12:33:49;;;;;;;;;;;;;;;17.01;45.52;101235.06;5031553;28;1147;-52
2024/03/08 12:36:15;;;;;;;;;;;;;;;16.35;47.22;101233.41;5031333;28;1372;-51
2024/03/08 12:38:43;;;;;;;;;;;;;;;16.04;48.19;101233.13;5030892;28;1321;-52
2024/03/08 12:41:08;;;;;;;;;;;;;;;16.32;47.75;101242.16;5037025;28;1126;-49
2024/03/08 12:43:34;;;;;;;;;;;;;;;17.68;44.02;101240.84;5032270;28;1324;-44
2024/03/08 12:45:59;;;;;;;;;;;;;;;16.88;46.10;101230.84;5028234;28;1914;-44
2024/03/08 12:48:25;;;;;;;;;;;;;;;16.36;47.45;101234.25;5023889;28;1094;-52